Upstream stations:
Downstream station:
SHEF ID: BRIO2 Canadian River at Bridgeport, OK
STATION TYPE:
Regulating: Stage = 15.00, Flow = 8545
STAGE RIV-FLOW
ft cfs
Ccp-Rev Ccp-Rev
(US/Central)
05/09 00:00 12.59 2176
05/09 01:00 12.59 2176
05/09 02:00 12.58 2161
05/09 03:00 12.57 2146
05/09 04:00 12.57 2146
05/09 05:00 12.54 2103
05/09 06:00 12.57 2146
05/09 07:00 13.14 3092
05/09 08:00 12.99 2820
05/09 09:00 12.93 2716
05/09 10:00 12.90 2665
05/09 11:00 12.88 2631
05/09 12:00 12.86 2598
05/09 13:00 12.84 2565
05/09 14:00 12.81 2516
05/09 15:00 12.80 2500
05/09 16:00 12.80 2500
05/09 17:00 12.80 2500
05/09 18:00 12.79 2483
05/09 19:00 12.74 2404
05/09 20:00 12.66 2280
05/09 21:00 12.63 2235
05/09 22:00 9.92 147
05/09 23:00 ---- ----